AYMO/MAS METAR and TAF weather

Enter ICAO airport designator
Station Type Date Time Source
AYMO METAR 2021/05/11 21:00 UTC NOAA

AYMO 112100Z 00000KT 9999 SCT018 OVC140 25/24 Q1010


Station Type Date Time Source
AYMO Decoded METAR 2021/05/11 21:00 UTC NOAA

Manus Island/Momote, Papua New Guinea (AYMO) 02-03-43S 147-25-27E
May 11, 2021 - 05:00 PM EDT / 2021.05.11 2100 UTC
Wind: Calm:0
Visibility: greater than 7 mile(s):0
Sky conditions: overcast
Temperature: 77 F (25 C)
Dew Point: 75 F (24 C)
Relative Humidity: 94%
Pressure (altimeter): 29.83 in. Hg (1010 hPa)
ob: AYMO 112100Z 00000KT 9999 SCT018 OVC140 25/24 Q1010
cycle: 21

Station Type Date Time Source
AYMO TAF 2018/08/02 20:51 UTC NOAA

TAF TAF AYMO 021437Z 0220/0308 16010KT 9999 SCT018 BKN140 Q1008 1010 1009 1007

Example: see airport list